RJBK weather

Kohnan Airport
Okayama Prefecture, Japan

Public forecast

Using degrees Celsius for public forecast. Weather courtesy of forecast.io.

METAR (pilot weather report)

Closest report is Okayama Airport, 10.7 nm (19.8 km) NNW. Retrieved 2019/05/23 12:00 UTC (29 minutes ago):

RJOB 231200Z VRB02KT 9999 FEW030 21/06 Q1010

TAF (pilot weather forecast)

Closest forecast is Okayama Airport, 10.7 nm (19.8 km) NNW. Retrieved 2019/05/23 12:00 UTC (29 minutes ago):

TAF RJOB 231106Z 2312/2418 35004KT CAVOK BECMG 2400/2403 21010KT BECMG 2409/2412 01006KT